Terminal Aerodrome Forecast
Issued by NWS

Home | Current Version | Previous Version | Text Only | Print | Product List | Glossary On
Versions: 1 2 3 4 5 6 7 8 9 10 11 12 13 14
941
FTUS44 KTSA 300130 AAA
TAFRVS
TAF AMD
KRVS 300130Z 3002/3024 VRB03KT P6SM SCT100
      TEMPO 3002/3003 4SM -TSRA BKN040CB
     FM301500 09003KT P6SM SCT050=

USA.gov is the U.S. government's official web portal to all federal, state and local government web resources and services.